Hlavní strana
METAR-TAF:

METAR-TAF

Letiště :

Hamilton, Ohio, Spojené státy americké

zeměpisná šířka: 39-21-41N, zeměpisná délka: 084-31-15W, výška: 193 m

Aktuální stav počasí

Zpráva byla vytvořena před 34 minutami, v 10:53 UTC
Západní vítr 9 kt
Teplota 1°C
Vlhkost vzduchu 75%
Tlak 1015 hPa
Viditelnost: 16.1 km
Oblačno až skoro zataženo ve výšce 2300 ft

METAR: KHAO 101053Z AUTO 28009KT 10SM BKN023 01/M03 A2996 RMK AO2 SLP148 T00061033

Čas: 06:27 (11:27 UTC)


TAF: chybějící

Stav a předpovědi počasí z více než 4 000 letišť (zprávy METAR a TAF).

Červené a žluté tečky na mapě představují dostupné meteorologické stanice.

Když kurzor umístíte na tečku, zobrazí se název stanice.

Pak kliknutím zobrazíte stav a předpověď počasí.

Chcete-li změnit mapu, kliknutím na zelené tlačítko se znaménkem +mapu přiblížíte, kliknutím na zelené tlačítko se znaménkem – mapu oddálíte a kliknutím na zelené šipky přejdete na sousední mapy.


METAR-TAF: